Alton, IA

2:11 AM CDT on August 29, 2014 (GMT -0500)
Orange City Municipal | Change Station
CLOSE
Current Station
Airport
Location: Orange City,
Elevation: 1414 ft
Nearby Weather Stations

Elev 1414 ft 42.99 °N, 96.06 °W | Updated 16 minutes ago

Scattered Clouds
Scattered Clouds
72 °F
Feels Like 72 °F
N
5
Wind Variable Wind from SE

Today
High -- | Low -- °F
--% Chance of Precip.
Yesterday
High -- | Low -- °F
Precip. -- in
6:45 AM 8:03 PM
Waxing Crescent, 12% visible
Pressure 29.82 in
Visibility 3.0 miles
Clouds Scattered Clouds 700 ft
Dew Point 70 °F
Humidity 94%
Rainfall 0.00 in
Snow Depth Not available.
UV 0 out of 12
Pollen 1.00 out of 12
Air Quality Not available.
Flu Activity Not available.
METAR KORC 290655Z AUTO 14004KT 3SM BR SCT007 22/21 A2982 RMK AO2

More Conditions Fewer Conditions

Pressure 29.82 in
Visibility 3.0 miles
Clouds Scattered Clouds 700 ft
Dew Point 70 °F
Humidity 94%
Rainfall 0.00 in
Snow Depth Not available.
UV 0 out of 12
Pollen 1.00 out of 12
Air Quality Not available.
Flu Activity Not available.
METAR KORC 290655Z AUTO 14004KT 3SM BR SCT007 22/21 A2982 RMK AO2

More Conditions Fewer Conditions

10-Day Weather Forecast

Almanac

Astronomy

Aug. 29, 2014 Rise Set
Actual Time 6:45 AM CDT 8:03 PM CDT
Civil Twilight 6:15 AM CDT 8:33 PM CDT
Nautical Twilight 5:40 AM CDT 9:08 PM CDT
Astronomical Twilight 5:02 AM CDT 9:45 PM CDT
Moon 10:42 AM CDT 9:54 PM CDT
Length of Visible Light 14h 17m
Length of Day
13h 18m
Tomorrow will be 2m 46s shorter.
Waxing Crescent, 12% of the Moon is Illuminated
Today
Waxing Crescent
Sep 2
First Quarter
Sep 8
Full
Sep 15
Last Quarter
Sep 24
New

Today's Extremes

State Highs State Lows

Community

WunderPhotos

Upload Photos

1,748,197 photos uploaded!

Nearby

Snow Depth

Station Depth Elevation
No new snow has been reported.

Earthquake Activity

City Distance Mag. Time & Date
No recent earthquake activity has been reported nearby.
Minimum magnitude displayed is 2.5.

Coastal Water Temperatures

Place Temperature
No Stations Reporting

Nearby Weather Stations